Ship Status Report: callsign WAM8729

sailwx.info

Track history (hours):
 
Tides and Currents Weather Stations Pressure Air Temp Water Temp Dewpoint Dewpoint Depression Visibility Wind Speed Wind Dir Waves Ship Positions

Callsign WAM8729 (name unknown)

Owner: REGENTS OF THE UNIVERSITY OF CALIFORNIA, OAKLAND, CA. More information available from US FCC via Universal Licensing System and Coast Guard Vessel Documentation Center.

Last reported at 2017-Sep-18 18:06 UTC. Time now 2017-Sep-19 16:51 UTC.
Position N 34°25' W 119°50'.

Length 7 m.

Type: Diving. MMSI: 338140283.

Date/timePositionNaut miles runAvg speedWind from/ knotsBaromVisibWave heightAir tempDewpointWater temp
2017-Sep-18 18:06N 34°25' W 119°50'0 0.9
2017-Sep-18 17:51N 34°25' W 119°50'2 4.4
2017-Sep-18 17:24N 34°24' W 119°52'0 0.1
2017-Sep-18 17:00N 34°24' W 119°52'0 0.0
2017-Sep-18 16:24N 34°24' W 119°52'0 0.0
2017-Sep-18 15:54N 34°24' W 119°52'0 0.0
2017-Sep-18 15:22N 34°24' W 119°52'  
2017-Sep-15 19:07N 34°24' W 119°51'1 3.1
2017-Sep-15 18:50N 34°25' W 119°50'0 1.1
2017-Sep-15 18:27N 34°25' W 119°50'2 3.1
2017-Sep-15 17:49N 34°24' W 119°52'0 0.0
2017-Sep-15 17:30N 34°24' W 119°52'0 0.0
2017-Sep-15 16:58N 34°24' W 119°52'0 0.0
2017-Sep-15 16:16N 34°24' W 119°52'0 0.0
2017-Sep-15 16:00N 34°24' W 119°52'2 2.6
2017-Sep-15 15:14N 34°25' W 119°50'1 0.0
2017-Sep-13 21:39N 34°24' W 119°51'0 0.1
2017-Sep-13 21:14N 34°24' W 119°51'725.0
2017-Sep-13 20:56N 34°25' W 119°42'0 0.7
2017-Sep-13 20:21N 34°24' W 119°41'6 3.8
2017-Sep-13 18:52N 34°20' W 119°37'0 0.3
2017-Sep-13 18:30N 34°20' W 119°37'0 0.2
2017-Sep-13 18:00N 34°20' W 119°37'0 0.2
2017-Sep-13 17:29N 34°20' W 119°37'0 0.0
2017-Sep-13 16:58N 34°20' W 119°37'0 0.1
2017-Sep-13 16:25N 34°20' W 119°37'613.7
2017-Sep-13 15:57N 34°24' W 119°44'1 2.6
2017-Sep-13 15:26N 34°24' W 119°42'612.4
2017-Sep-13 14:56N 34°26' W 119°49'1 0.1
2017-Sep-12 22:19N 34°25' W 119°50'0 1.0
2017-Sep-12 22:00N 34°25' W 119°50'1121.3
2017-Sep-12 21:28N 34°14' W 119°56'1523.5
2017-Sep-12 20:49N 33°59' W 119°58'5 1.0
2017-Sep-12 16:10N 33°55' W 119°58'85695.1
2017-Sep-12 16:02N 33°41' W 118°17'851091.0
2017-Sep-12 15:58N 33°58' W 119°58'862203.6
2017-Sep-12 15:55N 33°42' W 118°15'86177.2
2017-Sep-12 15:26N 34°08' W 119°54'1023.6
2017-Sep-12 15:00N 34°18' W 119°52'711.7
2017-Sep-12 14:22N 34°25' W 119°50'1 0.0
2017-Sep-11 20:52N 34°24' W 119°51'720.4
2017-Sep-11 20:30N 34°25' W 119°42'1015.0
2017-Sep-11 19:50N 34°24' W 119°54'3 8.2
2017-Sep-11 19:30N 34°25' W 119°57'0 0.0
2017-Sep-11 18:48N 34°25' W 119°57'1 2.0
2017-Sep-11 18:28N 34°25' W 119°56'4 7.5
2017-Sep-11 17:59N 34°24' W 119°52'1 2.7
2017-Sep-11 17:30N 34°24' W 119°51'6 3.6
2017-Sep-11 15:44N 34°24' W 119°43'5 9.4
2017-Sep-11 15:09N 34°27' W 119°48'  
Track history (hours):
 
Tides and Currents Weather Stations Pressure Air Temp Water Temp Dewpoint Dewpoint Depression Visibility Wind Speed Wind Dir Waves Ship Positions

Callsign WAM8729 (name unknown)

Owner: REGENTS OF THE UNIVERSITY OF CALIFORNIA, OAKLAND, CA. More information available from US FCC via Universal Licensing System and Coast Guard Vessel Documentation Center.

Last reported at 2017-Sep-18 18:06 UTC. Time now 2017-Sep-19 16:51 UTC.
Position N 34°25' W 119°50'.

Length 7 m.

Type: Diving. MMSI: 338140283.

Date/timePositionNaut miles runAvg speedWind from/ knotsBaromVisibWave heightAir tempDewpointWater temp
2017-Sep-18 18:06N 34°25' W 119°50'0 0.9
2017-Sep-18 17:51N 34°25' W 119°50'2 4.4
2017-Sep-18 17:24N 34°24' W 119°52'0 0.1
2017-Sep-18 17:00N 34°24' W 119°52'0 0.0
2017-Sep-18 16:24N 34°24' W 119°52'0 0.0
2017-Sep-18 15:54N 34°24' W 119°52'0 0.0
2017-Sep-18 15:22N 34°24' W 119°52'  
2017-Sep-15 19:07N 34°24' W 119°51'1 3.1
2017-Sep-15 18:50N 34°25' W 119°50'0 1.1
2017-Sep-15 18:27N 34°25' W 119°50'2 3.1
2017-Sep-15 17:49N 34°24' W 119°52'0 0.0
2017-Sep-15 17:30N 34°24' W 119°52'0 0.0
2017-Sep-15 16:58N 34°24' W 119°52'0 0.0
2017-Sep-15 16:16N 34°24' W 119°52'0 0.0
2017-Sep-15 16:00N 34°24' W 119°52'2 2.6
2017-Sep-15 15:14N 34°25' W 119°50'1 0.0
2017-Sep-13 21:39N 34°24' W 119°51'0 0.1
2017-Sep-13 21:14N 34°24' W 119°51'725.0
2017-Sep-13 20:56N 34°25' W 119°42'0 0.7
2017-Sep-13 20:21N 34°24' W 119°41'6 3.8
2017-Sep-13 18:52N 34°20' W 119°37'0 0.3
2017-Sep-13 18:30N 34°20' W 119°37'0 0.2
2017-Sep-13 18:00N 34°20' W 119°37'0 0.2
2017-Sep-13 17:29N 34°20' W 119°37'0 0.0
2017-Sep-13 16:58N 34°20' W 119°37'0 0.1
2017-Sep-13 16:25N 34°20' W 119°37'613.7
2017-Sep-13 15:57N 34°24' W 119°44'1 2.6
2017-Sep-13 15:26N 34°24' W 119°42'612.4
2017-Sep-13 14:56N 34°26' W 119°49'1 0.1
2017-Sep-12 22:19N 34°25' W 119°50'0 1.0
2017-Sep-12 22:00N 34°25' W 119°50'1121.3
2017-Sep-12 21:28N 34°14' W 119°56'1523.5
2017-Sep-12 20:49N 33°59' W 119°58'5 1.0
2017-Sep-12 16:10N 33°55' W 119°58'85695.1
2017-Sep-12 16:02N 33°41' W 118°17'851091.0
2017-Sep-12 15:58N 33°58' W 119°58'862203.6
2017-Sep-12 15:55N 33°42' W 118°15'86177.2
2017-Sep-12 15:26N 34°08' W 119°54'1023.6
2017-Sep-12 15:00N 34°18' W 119°52'711.7
2017-Sep-12 14:22N 34°25' W 119°50'1 0.0
2017-Sep-11 20:52N 34°24' W 119°51'720.4
2017-Sep-11 20:30N 34°25' W 119°42'1015.0
2017-Sep-11 19:50N 34°24' W 119°54'3 8.2
2017-Sep-11 19:30N 34°25' W 119°57'0 0.0
2017-Sep-11 18:48N 34°25' W 119°57'1 2.0
2017-Sep-11 18:28N 34°25' W 119°56'4 7.5
2017-Sep-11 17:59N 34°24' W 119°52'1 2.7
2017-Sep-11 17:30N 34°24' W 119°51'6 3.6
2017-Sep-11 15:44N 34°24' W 119°43'5 9.4
2017-Sep-11 15:09N 34°27' W 119°48'  

Dump ship's entire track history